Home > Products > Valid Products > MTR

000
SAUS43 KDLH 080157
MTRGNA
METAR KGNA 080156Z AUTO 25003KT 12/08 A3008 RMK AO1 SLP184 T01170083





000
SAUS43 KDLH 080057
MTRGNA
METAR KGNA 080056Z AUTO 24006KT 11/07 A3007 RMK AO1 SLP184 T01110067





000
SAUS43 KDLH 080057
MTRGNA
METAR KGNA 080056Z AUTO 24006KT 11/07 A3007 RMK AO1 SLP184 T01110067





000
SAUS43 KDLH 072357
MTRGNA
METAR KGNA 072356Z AUTO 25006KT 13/08 A3007 RMK AO1 SLP185 T01280078
10167 20122 58003





000
SAUS43 KDLH 072257
MTRGNA
METAR KGNA 072256Z AUTO VRB05KT 14/08 A3007 RMK AO1 SLP185 T01390083





000
SAUS43 KDLH 072257
MTRGNA
METAR KGNA 072256Z AUTO VRB05KT 14/08 A3007 RMK AO1 SLP185 T01390083





000
SAUS43 KDLH 072157
MTRGNA
METAR KGNA 072156Z AUTO 26006KT 15/09 A3009 RMK AO1 SLP188 T01500089





000
SAUS43 KDLH 072057
MTRGNA
METAR KGNA 072056Z AUTO 26007KT 15/09 A3008 RMK AO1 SLP187 T01500089
55004





000
SAUS43 KDLH 071957
MTRGNA
METAR KGNA 071956Z AUTO 26007KT 16/09 A3008 RMK AO1 SLP186 T01560094





000
SAUS43 KDLH 071857
MTRGNA
METAR KGNA 071856Z AUTO 25007KT 14/09 A3009 RMK AO1 SLP189 T01390089





000
SAUS43 KDLH 071757
MTRGNA
METAR KGNA 071756Z AUTO 27007KT 16/09 A3009 RMK AO1 SLP191 T01610094
10217 20117 55002





000
SAUS43 KDLH 071757
MTRGNA
METAR KGNA 071756Z AUTO 27007KT 16/09 A3009 RMK AO1 SLP191 T01610094
10217 20117 55002





000
SAUS43 KDLH 071657
MTRGNA
METAR KGNA 071656Z AUTO 34006G14KT 21/06 A3009 RMK AO1 SLP186
T02110061





000
SAUS43 KDLH 071657
MTRGNA
METAR KGNA 071656Z AUTO 34006G14KT 21/06 A3009 RMK AO1 SLP186
T02110061





000
SAUS43 KDLH 071557
MTRGNA
METAR KGNA 071556Z AUTO 34007G14KT 19/06 A3009 RMK AO1 SLP189
T01940056





000
SAUS43 KDLH 071457
MTRGNA
METAR KGNA 071456Z AUTO VRB05KT 18/07 A3010 RMK AO1 SLP190 T01830072
50006





000
SAUS43 KDLH 071457
MTRGNA
METAR KGNA 071456Z AUTO VRB05KT 18/07 A3010 RMK AO1 SLP190 T01830072
50006





000
SAUS43 KDLH 071357
MTRGNA
METAR KGNA 071356Z AUTO 34008KT 17/07 A3010 RMK AO1 SLP191 T01670067





000
SAUS43 KDLH 071257
MTRGNA
METAR KGNA 071256Z AUTO VRB05KT 16/09 A3009 RMK AO1 SLP186 T01560089





000
SAUS43 KDLH 071257
MTRGNA
METAR KGNA 071256Z AUTO VRB05KT 16/09 A3009 RMK AO1 SLP186 T01560089





000
SAUS43 KDLH 071157
MTRGNA
METAR KGNA 071156Z AUTO VRB03KT 12/09 A3008 RMK AO1 SLP184 70011
T01170089 10117 20089 51016





000
SAUS43 KDLH 071157
MTRGNA
METAR KGNA 071156Z AUTO VRB03KT 12/09 A3008 RMK AO1 SLP184 70011
T01170089 10117 20089 51016





000
SAUS43 KDLH 071057
MTRGNA
METAR KGNA 071056Z AUTO 00000KT 11/08 A3007 RMK AO1 SLP184 T01060083





000
SAUS43 KDLH 071057
MTRGNA
METAR KGNA 071056Z AUTO 00000KT 11/08 A3007 RMK AO1 SLP184 T01060083





000
SAUS43 KDLH 070957
MTRGNA
METAR KGNA 070956Z AUTO 33003KT 12/09 A3005 RMK AO1 SLP178 T01170089





000
SAUS43 KDLH 070857
MTRGNA
METAR KGNA 070856Z AUTO 00000KT 11/09 A3003 RMK AO1 SLP170 T01110089
52009





000
SAUS43 KDLH 070857
MTRGNA
METAR KGNA 070856Z AUTO 00000KT 11/09 A3003 RMK AO1 SLP170 T01110089
52009





000
SAUS43 KDLH 070757
MTRGNA
METAR KGNA 070756Z AUTO 00000KT 11/09 A3002 RMK AO1 SLP167 T01060089





000
SAUS43 KDLH 070657
MTRGNA
METAR KGNA 070656Z AUTO 00000KT 09/08 A3001 RMK AO1 SLP164 T00940078





000
SAUS43 KDLH 070657
MTRGNA
METAR KGNA 070656Z AUTO 00000KT 09/08 A3001 RMK AO1 SLP164 T00940078





000
SAUS43 KDLH 070557
MTRGNA
METAR KGNA 070556Z AUTO VRB03KT 09/08 A3000 RMK AO1 SLP161 T00940078
10183 20094 401830094 50006





000
SAUS43 KDLH 070557
MTRGNA
METAR KGNA 070556Z AUTO VRB03KT 09/08 A3000 RMK AO1 SLP161 T00940078
10183 20094 401830094 50006





000
SAUS43 KDLH 070457
MTRGNA
METAR KGNA 070456Z AUTO 32003KT 09/08 A3001 RMK AO1 SLP162 T00940083





000
SAUS43 KDLH 070457
MTRGNA
METAR KGNA 070456Z AUTO 32003KT 09/08 A3001 RMK AO1 SLP162 T00940083





000
SAUS43 KDLH 070357
MTRGNA
METAR KGNA 070356Z AUTO 33004KT 10/08 A3001 RMK AO1 SLP160 T01000083





000
SAUS43 KDLH 070257
MTRGNA
METAR KGNA 070256Z AUTO 00000KT 12/07 A2998 RMK AO1 SLP153 T01220072
53026





000
SAUS43 KDLH 070157
MTRGNA
METAR KGNA 070156Z AUTO 33005KT 14/08 A2995 RMK AO1 SLP139 T01440083





000
SAUS43 KDLH 070157
MTRGNA
METAR KGNA 070156Z AUTO 33005KT 14/08 A2995 RMK AO1 SLP139 T01440083





000
SAUS43 KDLH 070057
MTRGNA
METAR KGNA 070056Z AUTO 34005KT 17/09 A2992 RMK AO1 SLP130 T01670094





000
SAUS43 KDLH 062357
MTRGNA
METAR KGNA 062356Z AUTO VRB04KT 18/12 A2991 RMK AO1 SLP123 60003
T01830117 10183 20122 53001





000
SAUS43 KDLH 062257
MTRGNA
METAR KGNA 062256Z AUTO VRB03KT 13/12 A2989 RMK AO1 SLP121 T01280117





000
SAUS43 KDLH 062157
MTRGNA
METAR KGNA 062156Z AUTO 23005KT 12/12 A2989 RMK AO1 SLP121 T01220117





000
SAUS43 KDLH 062057
MTRGNA
METAR KGNA 062056Z AUTO 25005KT 13/12 A2990 RMK AO1 SLP125 60003
T01280122 51007





000
SAUS43 KDLH 061957
MTRGNA
METAR KGNA 061956Z AUTO 22006KT 13/12 A2990 RMK AO1 SLP124 P0001
T01280122





000
SAUS43 KDLH 061857
MTRGNA
METAR KGNA 061856Z AUTO 00000KT 13/13 A2990 RMK AO1 SLP124 P0002
T01330128





000
SAUS43 KDLH 061757
MTRGNA
METAR KGNA 061756Z AUTO 00000KT 13/12 A2988 RMK AO1 SLP117 60008
T01330122 10183 20128 53008





000
SAUS43 KDLH 061757
MTRGNA
METAR KGNA 061756Z AUTO 00000KT 13/12 A2988 RMK AO1 SLP117 60008
T01330122 10183 20128 53008





000
SAUS43 KDLH 061657
MTRGNA
METAR KGNA 061656Z AUTO 00000KT 16/14 A2987 RMK AO1 SLP111 T01560144





000
SAUS43 KDLH 061557
MTRGNA
METAR KGNA 061556Z AUTO VRB03KT 18/16 A2985 RMK AO1 SLP104 P0001
T01830161





000
SAUS43 KDLH 061457
MTRGNA
METAR KGNA 061456Z AUTO 00000KT 16/14 A2986 RMK AO1 SLP109 P0003
60007 T01560144 50009





000
SAUS43 KDLH 061457
MTRGNA
METAR KGNA 061456Z AUTO 00000KT 16/14 A2986 RMK AO1 SLP109 P0003
60007 T01560144 50009





000
SAUS43 KDLH 061357
MTRGNA
METAR KGNA 061356Z AUTO 01003KT 16/14 A2988 RMK AO1 SLP116 P0003
T01560144





000
SAUS43 KDLH 061257
MTRGNA
METAR KGNA 061256Z AUTO 00000KT 16/15 A2986 RMK AO1 SLP111 P0001
T01610150





000
SAUS43 KDLH 061157
MTRGNA
METAR KGNA 061156Z AUTO 00000KT 17/15 A2983 RMK AO1 SLP098 70086
T01670150 10167 20122 53017





000
SAUS43 KDLH 061157
MTRGNA
METAR KGNA 061156Z AUTO 00000KT 17/15 A2983 RMK AO1 SLP098 70086
T01670150 10167 20122 53017





000
SAUS43 KDLH 061057
MTRGNA
METAR KGNA 061056Z AUTO 00000KT 17/14 A2981 RMK AO1 SLP093 T01670144





000
SAUS43 KDLH 060957
MTRGNA
METAR KGNA 060956Z AUTO VRB04KT 16/14 A2977 RMK AO1 SLP079 T01560144





000
SAUS43 KDLH 060957
MTRGNA
METAR KGNA 060956Z AUTO VRB04KT 16/14 A2977 RMK AO1 SLP079 T01560144





000
SAUS43 KDLH 060857
MTRGNA
METAR KGNA 060856Z AUTO 00000KT 14/13 A2978 RMK AO1 SLP083 T01390133
55005





000
SAUS43 KDLH 060857
MTRGNA
METAR KGNA 060856Z AUTO 00000KT 14/13 A2978 RMK AO1 SLP083 T01390133
55005





000
SAUS43 KDLH 060757
MTRGNA
METAR KGNA 060756Z AUTO 21005KT 12/12 A2977 RMK AO1 SLP079 T01220122





000
SAUS43 KDLH 060657
MTRGNA
METAR KGNA 060656Z AUTO 22008KT 13/13 A2979 RMK AO1 SLP089 T01330128





000
SAUS43 KDLH 060557
MTRGNA
METAR KGNA 060556Z AUTO 27003KT 14/14 A2979 RMK AO1 SLP087 P0003
60086 T01440139 10178 20122 401780094 52010





000
SAUS43 KDLH 060557
MTRGNA
METAR KGNA 060556Z AUTO 27003KT 14/14 A2979 RMK AO1 SLP087 P0003
60086 T01440139 10178 20122 401780094 52010





000
SAUS43 KDLH 060457
MTRGNA
METAR KGNA 060456Z AUTO 00000KT 16/16 A2977 RMK AO1 SLP079 P0035
T01610156





000
SAUS43 KDLH 060357
MTRGNA
METAR KGNA 060356Z AUTO 00000KT 16/16 A2978 RMK AO1 SLP083 P0048
T01610156





000
SAUS43 KDLH 060357
MTRGNA
METAR KGNA 060356Z AUTO 00000KT 16/16 A2978 RMK AO1 SLP083 P0048
T01610156





000
SAUS43 KDLH 060257
MTRGNA
METAR KGNA 060256Z AUTO 05003KT 12/11 A2976 RMK AO1 SLP078 T01220106
56010





000
SAUS43 KDLH 060157
MTRGNA
METAR KGNA 060156Z AUTO 06005KT 14/12 A2976 RMK AO1 SLP078 T01390117





000
SAUS43 KDLH 060057
MTRGNA
METAR KGNA 060056Z AUTO 06004KT 14/12 A2977 RMK AO1 SLP081 T01390117





000
SAUS43 KDLH 052357
MTRGNA
METAR KGNA 052356Z AUTO 04005KT 13/11 A2979 RMK AO1 SLP089 T01330111
10144 20122 56020





000
SAUS43 KDLH 052357
MTRGNA
METAR KGNA 052356Z AUTO 04005KT 13/11 A2979 RMK AO1 SLP089 T01330111
10144 20122 56020





000
SAUS43 KDLH 052257
MTRGNA
METAR KGNA 052256Z AUTO 07006KT 12/11 A2981 RMK AO1 SLP095 T01220106





000
SAUS43 KDLH 052157
MTRGNA
METAR KGNA 052156Z AUTO 06006KT 12/09 A2982 RMK AO1 SLP100 T01220094





000
SAUS43 KDLH 052057
MTRGNA
METAR KGNA 052056Z AUTO 07004KT 13/09 A2985 RMK AO1 SLP109 T01280094
58016





000
SAUS43 KDLH 051957
MTRGNA
METAR KGNA 051956Z AUTO 07004KT 14/10 A2988 RMK AO1 SLP119 T01390100





000
SAUS43 KDLH 051857
MTRGNA
METAR KGNA 051856Z AUTO 06005KT 13/09 A2989 RMK AO1 SLP122 T01330094





000
SAUS43 KDLH 051857
MTRGNA
METAR KGNA 051856Z AUTO 06005KT 13/09 A2989 RMK AO1 SLP122 T01330094





000
SAUS43 KDLH 051757
MTRGNA
METAR KGNA 051756Z AUTO 08005KT 14/10 A2990 RMK AO1 SLP125 T01440100
10156 20100 55000





000
SAUS43 KDLH 051657
MTRGNA
METAR KGNA 051656Z AUTO 08004KT 15/11 A2990 RMK AO1 SLP124 T01500106





000
SAUS43 KDLH 051557
MTRGNA
METAR KGNA 051556Z AUTO 00000KT 14/10 A2990 RMK AO1 SLP124 T01440100





000
SAUS43 KDLH 051457
MTRGNA
METAR KGNA 051456Z AUTO 00000KT 13/09 A2990 RMK AO1 SLP125 T01280089
50001





000
SAUS43 KDLH 051357
MTRGNA
METAR KGNA 051356Z AUTO 22003KT 11/09 A2991 RMK AO1 SLP127 T01110089





000
SAUS43 KDLH 051257
MTRGNA
METAR KGNA 051256Z AUTO 24004KT 11/09 A2991 RMK AO1 SLP128 T01110094





000
SAUS43 KDLH 051157
MTRGNA
METAR KGNA 051156Z AUTO 00000KT 11/09 A2990 RMK AO1 SLP126 T01110094
10133 20094 58002





000
SAUS43 KDLH 051157
MTRGNA
METAR KGNA 051156Z AUTO 00000KT 11/09 A2990 RMK AO1 SLP126 T01110094
10133 20094 58002





000
SAUS43 KDLH 051057
MTRGNA
METAR KGNA 051056Z AUTO 00000KT 09/09 A2992 RMK AO1 SLP132 T00940089





000
SAUS43 KDLH 051057
MTRGNA
METAR KGNA 051056Z AUTO 00000KT 09/09 A2992 RMK AO1 SLP132 T00940089





000
SAUS43 KDLH 050957
MTRGNA
METAR KGNA 050956Z AUTO 24003KT 09/08 A2991 RMK AO1 SLP129 T00940083





000
SAUS43 KDLH 050857
MTRGNA
METAR KGNA 050856Z AUTO 00000KT 11/10 A2991 RMK AO1 SLP126 T01060100
56003





000
SAUS43 KDLH 050757
MTRGNA
METAR KGNA 050756Z AUTO 00000KT 11/09 A2991 RMK AO1 SLP127 T01060094





000
SAUS43 KDLH 050757
MTRGNA
METAR KGNA 050756Z AUTO 00000KT 11/09 A2991 RMK AO1 SLP127 T01060094





000
SAUS43 KDLH 050657
MTRGNA
METAR KGNA 050656Z AUTO 00000KT 12/10 A2990 RMK AO1 SLP125 T01170100





000
SAUS43 KDLH 050657
MTRGNA
METAR KGNA 050656Z AUTO 00000KT 12/10 A2990 RMK AO1 SLP125 T01170100





000
SAUS43 KDLH 050557
MTRGNA
METAR KGNA 050556Z AUTO 06003KT 12/11 A2991 RMK AO1 SLP128 T01220106
10150 20117 401890083 58013





000
SAUS43 KDLH 050557
MTRGNA
METAR KGNA 050556Z AUTO 06003KT 12/11 A2991 RMK AO1 SLP128 T01220106
10150 20117 401890083 58013





000
SAUS43 KDLH 050457
MTRGNA
METAR KGNA 050456Z AUTO 03003KT 14/12 A2994 RMK AO1 SLP137 T01390117





000
SAUS43 KDLH 050357
MTRGNA
METAR KGNA 050356Z AUTO 00000KT 13/11 A2996 RMK AO1 SLP143 T01330106





000
SAUS43 KDLH 050257
MTRGNA
METAR KGNA 050256Z AUTO 06003KT 13/10 A2995 RMK AO1 SLP143 T01330100
53004





    US Dept of Commerce
    National Oceanic and Atmospheric Administration
    National Weather Service
    1325 East West Highway
    Silver Spring, MD 20910
    Page Author: NWS Internet Services Team
Disclaimer
Information Quality
Credits
Glossary
Privacy Policy
Freedom of Information Act (FOIA)
About Us
Career Opportunities